Aviation Digital Data Service (ADDS)

Output produced by METARs form (1141 UTC 27 May 2017)
found at http://www.aviationweather.gov/adds/metars/
 
EVLA 271120Z AUTO 23015KT 9999 NCD 17/07 Q1022
TAF EVLA 271101Z 2712/2812 23012KT CAVOK 
     TEMPO 2712/2717 22015G25KT 
     BECMG 2719/2721 17005KT 
     TEMPO 2722/2804 2000 MIFG BR 
     BECMG 2806/2808 23011KT
       
EVRA 271120Z 30004KT 230V340 CAVOK 14/07 Q1022 NOSIG
TAF EVRA 271105Z 2712/2812 25007KT 9999 SCT040 
     BECMG 2722/2724 VRB02KT 
     TEMPO 2800/2804 3000 BR 
     BECMG 2807/2809 23007KT 
     TEMPO 2809/2812 24013G27KT
       
EVVA 271120Z AUTO 22015KT CAVOK 18/08 Q1021